Time;durP1;ratioP1;P1;durP2;ratioP2;P2;SDS_P1;SDS_P2;PMS_P1;PMS_P2;Temp;Humidity;BMP_temperature;BMP_pressure;BME280_temperature;BME280_humidity;BME280_pressure;Samples;Min_cycle;Max_cycle;Signal;HPM_P1;HPM_P2
2021/03/25 00:00:11;;;;;;;4.55;1.23;;;12.40;60.20;;;;;;4952233;28;20061;-79
2021/03/25 00:02:37;;;;;;;21.55;1.80;;;12.50;60.40;;;;;;4964560;28;20054;-80
2021/03/25 00:05:06;;;;;;;1.13;0.82;;;12.50;60.30;;;;;;4960385;28;20391;-78
2021/03/25 00:07:32;;;;;;;2.67;0.80;;;12.50;60.40;;;;;;4932389;29;20043;-79
2021/03/25 00:09:58;;;;;;;3.90;0.93;;;12.50;60.40;;;;;;4948593;29;20042;-79
2021/03/25 00:12:24;;;;;;;2.30;1.13;;;12.50;60.40;;;;;;4930588;29;20036;-80
2021/03/25 00:14:51;;;;;;;1.92;0.55;;;12.50;61.20;;;;;;4923118;29;20390;-79
2021/03/25 00:17:17;;;;;;;2.22;0.73;;;12.50;60.40;;;;;;4931986;29;20028;-79
2021/03/25 00:19:44;;;;;;;1.45;0.60;;;12.50;60.50;;;;;;4914760;29;20027;-79
2021/03/25 00:22:11;;;;;;;5.75;1.20;;;12.50;60.60;;;;;;4933482;29;20040;-79
2021/03/25 00:24:37;;;;;;;4.32;1.25;;;12.50;60.60;;;;;;4932180;29;20028;-79
2021/03/25 00:27:05;;;;;;;3.20;1.33;;;12.50;60.60;;;;;;4922857;29;20031;-79
2021/03/25 00:29:31;;;;;;;6.18;1.65;;;12.50;60.70;;;;;;4941079;29;20032;-80
2021/03/25 00:31:57;;;;;;;1.92;1.02;;;12.50;60.70;;;;;;4927522;29;20385;-80
2021/03/25 00:34:24;;;;;;;1.02;0.55;;;12.60;60.80;;;;;;4946269;29;20401;-80
2021/03/25 00:36:50;;;;;;;0.77;0.30;;;12.50;60.80;;;;;;4944408;29;20035;-78
2021/03/25 00:39:16;;;;;;;3.88;0.82;;;12.60;60.90;;;;;;4938966;29;20031;-81
2021/03/25 00:41:42;;;;;;;1.77;0.90;;;12.60;61.00;;;;;;4917638;29;20047;-84
2021/03/25 00:44:09;;;;;;;1.75;0.88;;;12.60;61.00;;;;;;4914974;29;20047;-80
2021/03/25 00:46:35;;;;;;;3.15;1.30;;;12.50;61.10;;;;;;4912022;29;20389;-79
2021/03/25 00:49:01;;;;;;;6.57;0.88;;;12.60;61.20;;;;;;4946430;29;20063;-79
2021/03/25 00:51:28;;;;;;;4.68;0.82;;;12.50;61.10;;;;;;4929762;29;20028;-78
2021/03/25 00:53:54;;;;;;;1.67;0.63;;;12.50;61.20;;;;;;4922124;29;20036;-80
2021/03/25 00:56:21;;;;;;;20.48;1.75;;;12.50;61.20;;;;;;4916092;29;20028;-78
2021/03/25 00:58:47;;;;;;;11.18;1.48;;;12.50;61.30;;;;;;4914361;29;20047;-79
2021/03/25 01:01:13;;;;;;;7.70;1.55;;;12.60;61.40;;;;;;4933598;28;20037;-79
2021/03/25 01:03:39;;;;;;;11.55;1.15;;;12.60;61.40;;;;;;4935646;29;20489;-79
2021/03/25 01:06:05;;;;;;;14.52;1.85;;;12.60;61.40;;;;;;4928868;29;20040;-79
2021/03/25 01:08:32;;;;;;;4.53;1.08;;;12.60;61.50;;;;;;4940958;29;20397;-79
2021/03/25 01:11:00;;;;;;;2.40;0.70;;;12.60;61.50;;;;;;4911245;29;20023;-78
2021/03/25 01:13:31;;;;;;;5.22;0.68;;;12.60;61.50;;;;;;4931830;29;20051;-79
2021/03/25 01:15:58;;;;;;;5.15;1.15;;;12.50;61.50;;;;;;4946600;28;20036;-79
2021/03/25 01:18:25;;;;;;;3.47;0.68;;;12.60;61.60;;;;;;4928055;29;20047;-79
2021/03/25 01:20:51;;;;;;;2.47;1.23;;;12.60;61.70;;;;;;4938272;29;20482;-79
2021/03/25 01:23:17;;;;;;;1.98;0.75;;;12.60;61.70;;;;;;4915492;29;20476;-80
2021/03/25 01:25:43;;;;;;;2.45;0.50;;;12.60;61.80;;;;;;4929346;29;20367;-80
2021/03/25 01:28:11;;;;;;;3.35;1.35;;;12.60;61.90;;;;;;4948997;29;20035;-79
2021/03/25 01:30:37;;;;;;;1.70;0.68;;;12.50;61.90;;;;;;4938049;29;20027;-79
2021/03/25 01:33:07;;;;;;;1.83;0.50;;;12.50;62.10;;;;;;4917161;29;20078;-79
2021/03/25 01:35:34;;;;;;;1.40;0.47;;;12.50;62.10;;;;;;4924517;29;20036;-79
2021/03/25 01:38:01;;;;;;;1.20;0.60;;;12.50;62.20;;;;;;4912025;29;20474;-79
2021/03/25 01:40:33;;;;;;;5.47;0.50;;;12.40;62.20;;;;;;4913705;29;20043;-79
2021/03/25 01:43:18;;;;;;;2.88;0.93;;;12.50;62.30;;;;;;4945755;29;20043;-79
2021/03/25 01:45:50;;;;;;;3.83;0.93;;;12.40;62.30;;;;;;4929690;29;20032;-80
2021/03/25 01:48:18;;;;;;;1.45;0.80;;;12.50;62.40;;;;;;4930841;29;20023;-79
2021/03/25 01:50:44;;;;;;;1.77;0.55;;;12.40;62.30;;;;;;4923058;29;20503;-79
2021/03/25 01:54:07;;;;;;;2.08;0.63;;;12.50;62.40;;;;;;4920171;29;20023;-79
2021/03/25 01:57:10;;;;;;;2.15;0.77;;;12.50;62.50;;;;;;4909066;29;20084;-79
2021/03/25 02:00:00;;;;;;;0.93;0.35;;;12.50;62.40;;;;;;4909115;29;20043;-79
2021/03/25 02:02:45;;;;;;;2.33;0.73;;;12.50;62.40;;;;;;4908399;29;20043;-78
2021/03/25 02:05:17;;;;;;;1.23;0.50;;;12.50;62.40;;;;;;4896592;29;20312;-80
2021/03/25 02:07:55;;;;;;;1.42;0.52;;;12.50;62.50;;;;;;4915621;29;20196;-79
2021/03/25 02:10:54;;;;;;;1.15;0.63;;;12.50;62.60;;;;;;4934729;29;20528;-80
2021/03/25 02:13:38;;;;;;;2.35;0.93;;;12.50;62.70;;;;;;4935078;29;20036;-79
2021/03/25 02:16:07;;;;;;;1.40;0.43;;;12.50;62.60;;;;;;4934684;29;20035;-80
2021/03/25 02:18:52;;;;;;;3.22;1.45;;;12.50;62.60;;;;;;4900822;29;20036;-79
2021/03/25 02:21:39;;;;;;;1.45;0.70;;;12.50;62.80;;;;;;4920606;29;20135;-79
2021/03/25 02:24:16;;;;;;;2.88;1.08;;;12.50;62.80;;;;;;4920624;29;20071;-80
2021/03/25 02:27:08;;;;;;;2.80;0.90;;;12.50;62.70;;;;;;4919936;29;20050;-80
2021/03/25 02:29:52;;;;;;;5.25;1.17;;;12.50;62.80;;;;;;4935369;29;20044;-79
2021/03/25 02:32:57;;;;;;;2.25;0.73;;;12.50;62.80;;;;;;4930370;28;20039;-79
2021/03/25 02:35:30;;;;;;;2.47;0.85;;;12.50;62.90;;;;;;4933030;29;20043;-80
2021/03/25 02:38:08;;;;;;;2.05;0.90;;;12.50;62.90;;;;;;4949389;29;20493;-79
2021/03/25 02:40:47;;;;;;;1.90;0.85;;;12.50;63.00;;;;;;4930992;29;20489;-79
2021/03/25 02:43:19;;;;;;;3.53;0.93;;;12.50;63.00;;;;;;4951400;29;20035;-80
2021/03/25 02:45:50;;;;;;;1.63;0.57;;;12.50;63.00;;;;;;4945413;28;20036;-79
2021/03/25 02:48:18;;;;;;;4.38;0.95;;;12.50;63.00;;;;;;4933180;29;20047;-79
2021/03/25 02:50:58;;;;;;;2.20;0.77;;;12.50;63.10;;;;;;4925707;29;20145;-79
2021/03/25 02:53:32;;;;;;;2.30;0.75;;;12.50;63.10;;;;;;4934752;29;20031;-79
2021/03/25 02:56:02;;;;;;;4.10;0.90;;;12.50;63.20;;;;;;4931837;29;20047;-79
2021/03/25 02:58:28;;;;;;;2.20;0.30;;;12.50;64.10;;;;;;4948685;29;20028;-78
2021/03/25 03:01:15;;;;;;;1.40;0.70;;;12.50;63.30;;;;;;4940182;28;20499;-79
2021/03/25 03:03:44;;;;;;;1.75;0.55;;;12.50;63.50;;;;;;4938290;29;20075;-83
2021/03/25 03:06:18;;;;;;;2.08;0.63;;;12.50;63.50;;;;;;4932051;29;20048;-81
2021/03/25 03:08:45;;;;;;;1.45;0.45;;;12.50;63.50;;;;;;4933286;29;20067;-79
2021/03/25 03:11:21;;;;;;;1.42;0.60;;;12.50;63.50;;;;;;4913798;29;20024;-79
2021/03/25 03:13:53;;;;;;;1.33;0.55;;;12.50;63.60;;;;;;4913729;29;20035;-80
2021/03/25 03:16:28;;;;;;;1.92;0.55;;;12.50;63.60;;;;;;4932894;28;20040;-81
2021/03/25 03:19:00;;;;;;;1.55;0.57;;;12.50;63.70;;;;;;4918447;29;20054;-80
2021/03/25 03:21:53;;;;;;;1.98;0.98;;;12.50;63.70;;;;;;4946833;29;20109;-80
2021/03/25 03:24:20;;;;;;;1.23;0.40;;;12.50;63.80;;;;;;4935172;29;20040;-80
2021/03/25 03:27:01;;;;;;;1.55;0.70;;;12.50;63.70;;;;;;4913553;29;20400;-80
2021/03/25 03:29:27;;;;;;;;;;;12.50;63.90;;;;;;4914620;29;20035;-79
2021/03/25 03:32:11;;;;;;;1.33;0.47;;;12.50;63.90;;;;;;4934235;28;19922;-79
2021/03/25 03:34:39;;;;;;;2.75;0.90;;;12.50;63.90;;;;;;4919842;29;20032;-78
2021/03/25 03:37:21;;;;;;;1.55;0.20;;;12.40;63.90;;;;;;4925977;29;20040;-79
2021/03/25 03:39:48;;;;;;;5.88;0.88;;;12.40;64.10;;;;;;4948106;29;20036;-79
2021/03/25 03:42:16;;;;;;;0.80;0.47;;;12.40;64.00;;;;;;4915938;29;20028;-79
2021/03/25 03:44:47;;;;;;;2.40;0.30;;;12.40;64.20;;;;;;4924797;29;20044;-79
2021/03/25 03:47:14;;;;;;;3.13;0.77;;;12.40;64.30;;;;;;4923830;29;20031;-79
2021/03/25 03:49:52;;;;;;;1.08;0.60;;;12.40;64.40;;;;;;4919997;29;20032;-82
2021/03/25 03:52:27;;;;;;;1.95;0.57;;;12.40;64.50;;;;;;4916427;29;20024;-79
2021/03/25 03:54:54;;;;;;;1.67;0.63;;;12.40;64.50;;;;;;4930303;29;20035;-79
2021/03/25 03:57:44;;;;;;;1.00;0.38;;;12.40;64.60;;;;;;4936147;29;20036;-81
2021/03/25 04:00:35;;;;;;;1.05;0.40;;;12.40;64.70;;;;;;4918479;28;20051;-80
2021/03/25 04:03:38;;;;;;;1.02;0.60;;;12.40;64.70;;;;;;4925581;29;20044;-81
2021/03/25 04:06:11;;;;;;;5.28;0.82;;;12.40;65.00;;;;;;4917443;29;20052;-79
2021/03/25 04:08:59;;;;;;;5.38;0.80;;;12.40;64.90;;;;;;4918693;29;20397;-79
2021/03/25 04:11:30;;;;;;;1.42;0.32;;;12.40;64.90;;;;;;4920180;29;20044;-78
2021/03/25 04:14:01;;;;;;;;;;;12.40;64.90;;;;;;4919142;29;20034;-79
2021/03/25 04:16:27;;;;;;;1.40;0.43;;;12.40;64.90;;;;;;4915929;29;19922;-79
2021/03/25 04:18:53;;;;;;;1.05;0.47;;;12.30;64.90;;;;;;4918130;29;20050;-78
2021/03/25 04:21:22;;;;;;;2.25;0.70;;;12.30;64.90;;;;;;4917722;29;20040;-79
2021/03/25 04:23:50;;;;;;;2.55;0.63;;;12.40;65.00;;;;;;4917882;29;20044;-79
2021/03/25 04:26:22;;;;;;;3.35;0.80;;;12.30;65.10;;;;;;4917078;29;20035;-79
2021/03/25 04:28:54;;;;;;;1.20;0.50;;;12.30;65.20;;;;;;4929112;29;20052;-79
2021/03/25 04:31:20;;;;;;;1.80;0.75;;;12.30;65.40;;;;;;4916514;29;20028;-78
2021/03/25 04:33:46;;;;;;;1.92;0.77;;;12.30;65.40;;;;;;4914156;29;20163;-79
2021/03/25 04:36:19;;;;;;;3.92;0.80;;;12.30;65.50;;;;;;4913593;29;20040;-79
2021/03/25 04:38:46;;;;;;;2.08;0.90;;;12.30;65.60;;;;;;4913324;29;20401;-79
2021/03/25 04:41:12;;;;;;;2.65;1.00;;;12.30;65.60;;;;;;4913804;29;20047;-79
2021/03/25 04:43:38;;;;;;;1.05;0.47;;;12.30;66.50;;;;;;4931431;29;20035;-79
2021/03/25 04:46:17;;;;;;;0.82;0.52;;;12.30;65.70;;;;;;4931491;29;20048;-79
2021/03/25 04:48:43;;;;;;;3.63;0.88;;;12.30;65.90;;;;;;4930706;29;20035;-79
2021/03/25 04:51:22;;;;;;;1.92;0.93;;;12.40;65.90;;;;;;4938569;29;20051;-81
2021/03/25 04:53:50;;;;;;;1.60;0.85;;;12.40;66.00;;;;;;4914254;29;20034;-79
2021/03/25 04:56:18;;;;;;;11.10;0.70;;;12.30;66.00;;;;;;4922584;29;20034;-79
2021/03/25 04:58:58;;;;;;;0.95;0.52;;;12.30;66.00;;;;;;4931326;29;20035;-79
2021/03/25 05:01:26;;;;;;;0.90;0.47;;;12.40;66.20;;;;;;4917064;29;20043;-80
2021/03/25 05:04:00;;;;;;;2.22;0.77;;;12.30;66.20;;;;;;4914780;29;20051;-79
2021/03/25 05:06:41;;;;;;;1.73;0.82;;;12.30;66.30;;;;;;4950271;29;20142;-79
2021/03/25 05:09:14;;;;;;;1.35;0.60;;;12.20;66.40;;;;;;4961949;28;20023;-79
2021/03/25 05:11:40;;;;;;;2.78;0.50;;;12.20;66.50;;;;;;4952439;28;20416;-79
2021/03/25 05:14:25;;;;;;;3.17;0.52;;;12.20;66.50;;;;;;4966344;28;20033;-82
2021/03/25 05:16:54;;;;;;;1.17;0.70;;;12.20;66.60;;;;;;4962216;28;20024;-80
2021/03/25 05:19:30;;;;;;;2.05;0.98;;;12.20;66.70;;;;;;4952630;28;20032;-80
2021/03/25 05:22:13;;;;;;;1.08;0.22;;;12.10;66.80;;;;;;4968125;28;20023;-80
2021/03/25 05:24:45;;;;;;;1.45;0.70;;;12.10;66.90;;;;;;4936292;28;20522;-79
2021/03/25 05:27:43;;;;;;;1.52;0.75;;;12.10;66.90;;;;;;4969290;28;20030;-80
2021/03/25 05:30:15;;;;;;;2.30;0.80;;;12.20;66.90;;;;;;4968494;28;20502;-80
2021/03/25 05:32:43;;;;;;;0.77;0.30;;;12.20;66.90;;;;;;4944669;28;20034;-80
2021/03/25 05:35:12;;;;;;;1.38;0.98;;;12.20;66.90;;;;;;4959831;28;20049;-79
2021/03/25 05:37:38;;;;;;;0.85;0.30;;;12.10;67.00;;;;;;4963105;28;20031;-79
2021/03/25 05:40:10;;;;;;;3.58;0.40;;;12.00;67.10;;;;;;4968902;28;20053;-80
2021/03/25 05:42:48;;;;;;;6.18;0.43;;;12.00;67.20;;;;;;4948597;28;20054;-79
2021/03/25 05:45:42;;;;;;;0.98;0.20;;;11.90;67.30;;;;;;4952196;28;20042;-79
2021/03/25 05:48:17;;;;;;;0.57;0.17;;;11.90;67.40;;;;;;4962244;28;20046;-79
2021/03/25 05:51:05;;;;;;;0.30;0.15;;;11.90;67.40;;;;;;4959861;28;20031;-79
2021/03/25 05:53:56;;;;;;;0.75;0.30;;;11.80;67.50;;;;;;4935331;28;20038;-79
2021/03/25 05:56:25;;;;;;;0.50;0.38;;;11.80;67.50;;;;;;4937475;28;20031;-79
2021/03/25 05:58:57;;;;;;;5.22;1.02;;;11.70;67.40;;;;;;4965181;28;20023;-79
2021/03/25 06:01:26;;;;;;;;;;;11.70;67.50;;;;;;4940493;28;20042;-80
2021/03/25 06:04:18;;;;;;;5.82;0.40;;;11.70;67.60;;;;;;4952981;28;19917;-79
2021/03/25 06:07:16;;;;;;;0.17;0.08;;;11.60;67.50;;;;;;4969654;28;20059;-80
2021/03/25 06:09:48;;;;;;;1.50;0.75;;;11.60;67.60;;;;;;4969509;28;20026;-80
2021/03/25 06:12:20;;;;;;;1.10;0.65;;;11.50;67.60;;;;;;4967998;28;20031;-79
2021/03/25 06:15:08;;;;;;;7.85;0.63;;;11.50;67.60;;;;;;4960164;28;20031;-81
2021/03/25 06:17:52;;;;;;;0.80;0.60;;;11.50;67.70;;;;;;4923600;29;20047;-79
2021/03/25 06:20:27;;;;;;;1.38;0.38;;;11.40;67.70;;;;;;4929887;28;20031;-79
2021/03/25 06:23:18;;;;;;;0.40;0.20;;;11.40;67.70;;;;;;4965813;28;20060;-80
2021/03/25 06:25:55;;;;;;;1.30;0.73;;;11.40;67.70;;;;;;4945084;29;20031;-78
2021/03/25 06:29:03;;;;;;;0.45;0.20;;;11.40;67.70;;;;;;4935589;29;20038;-78
2021/03/25 06:31:47;;;;;;;0.73;0.10;;;11.40;67.70;;;;;;4901949;29;20051;-79
2021/03/25 06:34:41;;;;;;;1.27;0.30;;;11.40;67.70;;;;;;4917029;29;20068;-80
2021/03/25 06:37:18;;;;;;;1.58;0.55;;;11.50;67.70;;;;;;4925058;29;20485;-80
2021/03/25 06:39:46;;;;;;;0.63;0.30;;;11.50;67.60;;;;;;4916057;29;20036;-79
2021/03/25 06:42:36;;;;;;;0.40;0.15;;;11.50;67.40;;;;;;4911226;29;20525;-80
2021/03/25 06:45:14;;;;;;;0.45;0.32;;;11.60;67.40;;;;;;4910382;29;20070;-79
2021/03/25 06:48:05;;;;;;;0.70;0.30;;;11.70;67.00;;;;;;4927621;29;20485;-79
2021/03/25 06:50:33;;;;;;;2.33;0.50;;;11.90;66.90;;;;;;4919969;29;20140;-79
2021/03/25 06:53:21;;;;;;;0.85;0.10;;;12.10;66.50;;;;;;4915129;29;20043;-79
2021/03/25 06:56:16;;;;;;;0.70;0.30;;;12.30;66.10;;;;;;4904781;29;20187;-79
2021/03/25 06:58:50;;;;;;;2.58;0.55;;;12.60;65.50;;;;;;4930442;29;20040;-79
2021/03/25 07:01:46;;;;;;;1.35;0.30;;;12.90;64.90;;;;;;4904385;29;20066;-79
2021/03/25 07:04:24;;;;;;;1.40;0.50;;;13.10;64.30;;;;;;4890710;29;20156;-80
2021/03/25 07:06:51;;;;;;;3.40;0.57;;;13.30;63.90;;;;;;4955637;28;20042;-81
2021/03/25 07:09:26;;;;;;;0.77;0.38;;;13.60;63.80;;;;;;4959066;28;20031;-79
2021/03/25 07:11:52;;;;;;;1.75;0.47;;;13.80;63.50;;;;;;4948364;29;20031;-79
2021/03/25 07:14:26;;;;;;;2.03;0.35;;;13.90;63.20;;;;;;4962015;28;20061;-79
2021/03/25 07:16:52;;;;;;;0.20;0.10;;;14.00;63.10;;;;;;4938411;28;20035;-80
2021/03/25 07:19:21;;;;;;;0.70;0.30;;;14.10;63.10;;;;;;4953540;28;20027;-79
2021/03/25 07:22:14;;;;;;;1.23;0.25;;;14.20;63.00;;;;;;4936553;28;20042;-80
2021/03/25 07:24:40;;;;;;;3.03;0.63;;;14.30;63.00;;;;;;4946259;29;20054;-79
2021/03/25 07:27:32;;;;;;;2.15;0.95;;;14.40;62.80;;;;;;4942135;28;20015;-79
2021/03/25 07:30:00;;;;;;;2.65;0.90;;;14.50;62.70;;;;;;4947951;28;20038;-80
2021/03/25 07:32:34;;;;;;;0.88;0.30;;;14.70;62.70;;;;;;4946024;28;20034;-79
2021/03/25 07:35:30;;;;;;;0.57;0.20;;;14.80;62.40;;;;;;4927436;28;20295;-79
2021/03/25 07:37:57;;;;;;;1.10;0.30;;;15.00;62.10;;;;;;4951009;28;20027;-80
2021/03/25 07:40:34;;;;;;;0.70;0.20;;;15.20;61.80;;;;;;4943519;28;20046;-80
2021/03/25 07:43:15;;;;;;;0.43;0.20;;;15.30;61.60;;;;;;4955330;28;20508;-80
2021/03/25 07:45:41;;;;;;;3.42;1.13;;;15.50;61.50;;;;;;4969851;28;20416;-80
2021/03/25 07:48:20;;;;;;;0.80;0.38;;;15.70;61.20;;;;;;4960746;28;20102;-80
2021/03/25 07:50:47;;;;;;;0.50;0.20;;;15.80;60.90;;;;;;4946158;28;20029;-80
2021/03/25 07:53:22;;;;;;;4.93;0.30;;;15.80;60.80;;;;;;4946024;28;20046;-80
2021/03/25 07:55:48;;;;;;;0.75;0.20;;;15.90;60.70;;;;;;4969404;28;20023;-80
2021/03/25 07:58:37;;;;;;;0.50;0.22;;;15.90;60.70;;;;;;4924158;28;20046;-81
2021/03/25 08:01:22;;;;;;;0.30;0.10;;;15.80;60.80;;;;;;4970008;28;20039;-80
2021/03/25 08:03:49;;;;;;;0.30;0.15;;;15.70;60.90;;;;;;4939320;28;20085;-80
2021/03/25 08:06:23;;;;;;;0.10;0.10;;;15.60;61.10;;;;;;4969556;28;20138;-80
2021/03/25 08:09:00;;;;;;;1.83;0.45;;;15.60;60.90;;;;;;4948459;29;20617;-80
2021/03/25 08:11:26;;;;;;;0.65;0.17;;;15.60;60.90;;;;;;4961287;28;20031;-80
2021/03/25 08:14:19;;;;;;;0.13;0.10;;;15.60;60.60;;;;;;4936958;28;20465;-79
2021/03/25 08:16:46;;;;;;;0.32;0.10;;;15.60;60.60;;;;;;4943600;28;20522;-81
2021/03/25 08:19:40;;;;;;;1.65;0.75;;;15.60;60.70;;;;;;4971510;28;20039;-80
2021/03/25 08:22:28;;;;;;;2.58;0.30;;;15.70;61.10;;;;;;4958258;28;20050;-81
2021/03/25 08:24:54;;;;;;;6.93;0.20;;;16.00;60.00;;;;;;4938581;28;20051;-80
2021/03/25 08:27:32;;;;;;;0.40;0.00;;;16.40;59.60;;;;;;4968490;28;20502;-82
2021/03/25 08:30:26;;;;;;;2.65;0.10;;;16.50;59.20;;;;;;4959792;28;20119;-81
2021/03/25 08:33:05;;;;;;;0.20;0.00;;;16.50;59.10;;;;;;4938136;28;20508;-80
2021/03/25 08:35:36;;;;;;;1.23;0.10;;;16.50;58.90;;;;;;4967016;28;20365;-80
2021/03/25 08:38:25;;;;;;;0.10;0.00;;;16.50;58.90;;;;;;4965181;28;20023;-80
2021/03/25 08:40:52;;;;;;;0.43;0.20;;;16.50;58.60;;;;;;4948086;28;20034;-80
2021/03/25 08:43:37;;;;;;;2.35;0.30;;;16.50;58.70;;;;;;4941508;28;20026;-81
2021/03/25 08:46:37;;;;;;;2.28;0.30;;;16.50;58.50;;;;;;4969039;28;20047;-81
2021/03/25 08:49:20;;;;;;;17.42;0.20;;;16.60;58.50;;;;;;4932299;28;20054;-80
2021/03/25 08:51:46;;;;;;;0.00;0.00;;;16.50;58.00;;;;;;4940636;28;20054;-80
2021/03/25 08:54:25;;;;;;;0.28;0.10;;;16.50;57.90;;;;;;4950160;28;20042;-80
2021/03/25 08:56:57;;;;;;;0.05;0.00;;;16.50;57.90;;;;;;4947288;29;20511;-80
2021/03/25 08:59:23;;;;;;;0.00;0.00;;;16.60;57.70;;;;;;4958435;28;20035;-81
2021/03/25 09:02:01;;;;;;;0.00;0.00;;;16.70;57.40;;;;;;4956169;28;20031;-80
2021/03/25 09:04:31;;;;;;;0.75;0.00;;;16.70;57.00;;;;;;4967101;28;20031;-80
2021/03/25 09:06:57;;;;;;;0.28;0.08;;;16.70;57.00;;;;;;4936145;28;20050;-80
2021/03/25 09:09:40;;;;;;;0.35;0.10;;;16.70;56.70;;;;;;4950396;28;20053;-80
2021/03/25 09:12:16;;;;;;;1.75;0.03;;;16.90;56.70;;;;;;4963166;28;20027;-80
2021/03/25 09:14:43;;;;;;;1.65;0.15;;;17.10;56.50;;;;;;4941593;29;20046;-81
2021/03/25 09:17:19;;;;;;;6.47;0.13;;;17.40;56.30;;;;;;4958853;28;20027;-80
2021/03/25 09:19:53;;;;;;;0.13;0.03;;;17.80;55.80;;;;;;4937907;29;20031;-81
2021/03/25 09:22:39;;;;;;;3.97;0.20;;;18.30;55.10;;;;;;4938298;28;20123;-80
2021/03/25 09:25:20;;;;;;;0.10;0.00;;;18.50;54.50;;;;;;4954676;28;20039;-80
2021/03/25 09:28:04;;;;;;;0.43;0.00;;;18.80;54.40;;;;;;4971624;28;20034;-81
2021/03/25 09:30:57;;;;;;;0.30;0.28;;;19.10;54.10;;;;;;4958359;28;20035;-80
2021/03/25 09:33:40;;;;;;;0.00;0.00;;;19.30;53.80;;;;;;4949775;28;20039;-80
2021/03/25 09:36:32;;;;;;;0.47;0.20;;;19.30;53.70;;;;;;4954942;28;20507;-80
2021/03/25 09:38:58;;;;;;;0.00;0.00;;;19.30;53.60;;;;;;4893208;29;20055;-80
2021/03/25 09:41:24;;;;;;;1.15;0.22;;;19.40;53.60;;;;;;4898614;29;20049;-81
2021/03/25 09:44:09;;;;;;;0.00;0.00;;;19.40;53.30;;;;;;4879055;29;20509;-82
2021/03/25 09:46:41;;;;;;;4.80;0.38;;;19.50;53.20;;;;;;4894244;29;20515;-80
2021/03/25 09:49:24;;;;;;;0.00;0.00;;;19.70;53.10;;;;;;4879347;29;20033;-82
2021/03/25 09:52:12;;;;;;;0.70;0.15;;;19.80;52.60;;;;;;4892134;29;20037;-83
2021/03/25 09:54:49;;;;;;;0.00;0.00;;;20.00;52.30;;;;;;4890652;29;20501;-80
2021/03/25 09:57:34;;;;;;;0.57;0.08;;;20.30;52.00;;;;;;4895173;29;20060;-80
2021/03/25 10:00:04;;;;;;;1.25;0.00;;;20.50;51.70;;;;;;4898602;29;20041;-80
2021/03/25 10:02:42;;;;;;;0.80;0.00;;;20.70;51.40;;;;;;4878603;29;20101;-80
2021/03/25 10:05:28;;;;;;;0.00;0.00;;;20.70;51.20;;;;;;4898087;29;20525;-80
2021/03/25 10:08:09;;;;;;;0.00;0.00;;;20.80;51.20;;;;;;4894188;29;20043;-80
2021/03/25 10:10:49;;;;;;;4.45;0.00;;;20.80;51.00;;;;;;4893927;29;20497;-80
2021/03/25 10:13:34;;;;;;;0.00;0.00;;;20.90;51.10;;;;;;4880203;29;20530;-80
2021/03/25 10:16:03;;;;;;;0.00;0.00;;;21.00;51.00;;;;;;4942897;28;20054;-80
2021/03/25 10:18:32;;;;;;;0.08;0.00;;;21.10;50.80;;;;;;4968032;28;20427;-80
2021/03/25 10:21:06;;;;;;;0.10;0.00;;;21.30;50.60;;;;;;4965792;28;20039;-80
2021/03/25 10:23:37;;;;;;;0.00;0.00;;;21.40;50.20;;;;;;4962479;28;20043;-81
2021/03/25 10:26:12;;;;;;;1.98;0.10;;;21.60;49.90;;;;;;4945061;28;20093;-80
2021/03/25 10:28:41;;;;;;;0.25;0.03;;;21.80;49.60;;;;;;4970559;28;20023;-81
2021/03/25 10:31:18;;;;;;;1.67;0.10;;;21.90;49.40;;;;;;4955933;28;20369;-80
2021/03/25 10:33:44;;;;;;;0.00;0.00;;;21.90;49.30;;;;;;4955753;28;20046;-80
2021/03/25 10:36:21;;;;;;;0.70;0.10;;;21.80;49.20;;;;;;4959320;28;20031;-80
2021/03/25 10:38:52;;;;;;;0.00;0.00;;;21.80;49.20;;;;;;4948873;29;20054;-80
2021/03/25 10:41:22;;;;;;;0.00;0.00;;;21.70;49.00;;;;;;4945277;28;20499;-80
2021/03/25 10:43:51;;;;;;;0.10;0.03;;;21.70;49.20;;;;;;4958433;28;20047;-81
2021/03/25 10:46:33;;;;;;;0.30;0.00;;;21.70;49.10;;;;;;4972404;28;20046;-80
2021/03/25 10:49:04;;;;;;;0.22;0.10;;;21.70;48.90;;;;;;4955109;28;20027;-80
2021/03/25 10:51:31;;;;;;;0.00;0.00;;;21.80;48.80;;;;;;4970822;28;20038;-80
2021/03/25 10:54:00;;;;;;;1.40;0.10;;;21.90;48.60;;;;;;4949910;29;20034;-80
2021/03/25 10:56:39;;;;;;;0.00;0.00;;;22.00;48.20;;;;;;4962819;28;20035;-81
2021/03/25 10:59:12;;;;;;;0.08;0.00;;;22.10;47.90;;;;;;4939289;28;20045;-80
2021/03/25 11:01:46;;;;;;;0.00;0.00;;;22.10;47.70;;;;;;4969339;28;20032;-81
2021/03/25 11:04:17;;;;;;;0.00;0.00;;;22.00;47.80;;;;;;4941737;28;20034;-81
2021/03/25 11:06:43;;;;;;;0.00;0.00;;;22.10;47.60;;;;;;4939379;29;20047;-81
2021/03/25 11:09:18;;;;;;;0.77;0.30;;;22.00;47.60;;;;;;4956344;28;20039;-80
2021/03/25 11:11:45;;;;;;;0.08;0.00;;;22.10;47.40;;;;;;4959451;28;20038;-80
2021/03/25 11:14:21;;;;;;;0.25;0.00;;;22.20;47.30;;;;;;4938143;28;20388;-81
2021/03/25 11:16:59;;;;;;;0.35;0.10;;;22.10;47.20;;;;;;4968021;28;20057;-80
2021/03/25 11:19:25;;;;;;;0.10;0.00;;;21.90;47.10;;;;;;4944057;28;20062;-81
2021/03/25 11:21:54;;;;;;;0.10;0.00;;;21.80;47.40;;;;;;4926144;28;20469;-81
2021/03/25 11:24:32;;;;;;;0.00;0.00;;;21.80;47.30;;;;;;4929881;29;20047;-81
2021/03/25 11:27:00;;;;;;;2.33;0.03;;;21.70;47.10;;;;;;4937634;28;20026;-81
2021/03/25 11:29:35;;;;;;;0.80;0.25;;;21.70;47.20;;;;;;4953922;28;20019;-80
2021/03/25 11:32:21;;;;;;;0.00;0.00;;;21.70;47.00;;;;;;4966215;28;20392;-81
2021/03/25 11:34:50;;;;;;;3.70;0.20;;;21.40;47.10;;;;;;4958513;28;20031;-81
2021/03/25 11:37:33;;;;;;;0.05;0.00;;;21.10;47.40;;;;;;4939394;28;20364;-83
2021/03/25 11:40:14;;;;;;;0.10;0.03;;;21.00;47.50;;;;;;4972801;28;20049;-81
2021/03/25 11:42:41;;;;;;;0.47;0.20;;;21.10;47.30;;;;;;4971634;28;20031;-80
2021/03/25 11:45:26;;;;;;;0.95;0.10;;;21.30;47.00;;;;;;4949556;28;20496;-81
2021/03/25 11:47:52;;;;;;;0.57;0.10;;;21.40;46.70;;;;;;4967833;28;20061;-80
2021/03/25 11:50:18;;;;;;;0.45;0.05;;;21.20;46.70;;;;;;4957623;28;20036;-81
2021/03/25 11:52:47;;;;;;;0.30;0.08;;;20.80;47.00;;;;;;4956608;28;20039;-80
2021/03/25 11:55:31;;;;;;;0.25;0.00;;;20.50;47.60;;;;;;4956755;28;20035;-80
2021/03/25 11:58:04;;;;;;;0.10;0.00;;;20.40;47.70;;;;;;4974396;28;20502;-81
2021/03/25 12:00:30;;;;;;;0.00;0.00;;;20.50;47.50;;;;;;4957530;28;20046;-81
2021/03/25 12:02:57;;;;;;;0.75;0.10;;;20.70;47.20;;;;;;4926505;29;20507;-82
2021/03/25 12:05:30;;;;;;;8.20;0.17;;;20.80;46.80;;;;;;4946871;28;20034;-82
2021/03/25 12:08:15;;;;;;;0.30;0.10;;;21.00;46.60;;;;;;4967669;28;20496;-81
2021/03/25 12:10:42;;;;;;;0.03;0.00;;;21.20;46.20;;;;;;4968149;28;20027;-81
2021/03/25 12:13:08;;;;;;;0.75;0.20;;;21.30;46.00;;;;;;4972362;28;20034;-81
2021/03/25 12:15:35;;;;;;;0.38;0.10;;;21.50;45.80;;;;;;4957504;28;20377;-81
2021/03/25 12:18:30;;;;;;;0.00;0.00;;;21.50;45.60;;;;;;4952784;28;20297;-82
2021/03/25 12:20:58;;;;;;;1.25;0.08;;;21.60;45.40;;;;;;4947053;29;20468;-81
2021/03/25 12:23:28;;;;;;;0.20;0.10;;;21.70;45.20;;;;;;4942379;29;20023;-81
2021/03/25 12:25:56;;;;;;;0.28;0.00;;;21.70;45.20;;;;;;4958705;28;20036;-82
2021/03/25 12:28:22;;;;;;;0.10;0.00;;;21.80;45.10;;;;;;4953903;28;20031;-83
2021/03/25 12:30:48;;;;;;;0.10;0.00;;;21.80;45.00;;;;;;4966662;28;20031;-81
2021/03/25 12:33:29;;;;;;;0.10;0.00;;;21.80;45.00;;;;;;4950605;28;20034;-81
2021/03/25 12:35:56;;;;;;;0.00;0.00;;;21.80;44.90;;;;;;4946761;29;20038;-81
2021/03/25 12:38:22;;;;;;;0.00;0.00;;;21.80;45.00;;;;;;4941880;29;20031;-81
2021/03/25 12:40:48;;;;;;;4.75;0.10;;;21.80;44.90;;;;;;4940172;28;20416;-81
2021/03/25 12:43:16;;;;;;;0.35;0.00;;;21.80;44.80;;;;;;4971156;28;20037;-81
2021/03/25 12:45:49;;;;;;;0.00;0.00;;;21.70;44.70;;;;;;4965269;28;20043;-85
2021/03/25 12:48:16;;;;;;;0.10;0.00;;;21.50;44.80;;;;;;4952407;28;20476;-81
2021/03/25 12:50:43;;;;;;;6.13;0.10;;;21.20;45.10;;;;;;4933121;29;20047;-81
2021/03/25 12:53:09;;;;;;;0.00;0.00;;;21.00;46.10;;;;;;4960370;28;20023;-80
2021/03/25 12:55:35;;;;;;;0.93;0.08;;;20.90;45.70;;;;;;4953669;28;20488;-81
2021/03/25 12:58:01;;;;;;;0.00;0.00;;;20.70;45.50;;;;;;4953702;28;20046;-81
2021/03/25 13:00:28;;;;;;;0.43;0.13;;;20.50;45.70;;;;;;4950951;28;20362;-80
2021/03/25 13:02:55;;;;;;;0.30;0.10;;;20.50;45.80;;;;;;4963369;28;20076;-81
2021/03/25 13:05:21;;;;;;;0.45;0.00;;;20.60;45.60;;;;;;4941416;29;20037;-81
2021/03/25 13:07:48;;;;;;;0.00;0.00;;;20.80;45.30;;;;;;4956374;28;20388;-80
2021/03/25 13:10:17;;;;;;;0.95;0.00;;;21.00;44.90;;;;;;4954373;28;20046;-80
2021/03/25 13:12:43;;;;;;;0.47;0.10;;;21.20;44.50;;;;;;4949471;28;20027;-82
2021/03/25 13:15:09;;;;;;;0.00;0.00;;;21.40;44.40;;;;;;4942164;28;20027;-80
2021/03/25 13:17:36;;;;;;;3.83;0.13;;;21.50;44.30;;;;;;4967388;28;20066;-81
2021/03/25 13:20:03;;;;;;;0.22;0.00;;;21.60;44.10;;;;;;4948514;28;20038;-82
2021/03/25 13:22:30;;;;;;;0.00;0.00;;;21.70;43.90;;;;;;4943485;28;20041;-82
2021/03/25 13:24:56;;;;;;;7.57;0.10;;;21.70;43.80;;;;;;4969622;28;20030;-83